Ticket #53: gpsdump

File gpsdump, 53.8 KB (added by kripton, 12 years ago)

The NMEA-tracklog used with gpsfake

Line 
1$GPGGA,115607,4959.9685,N,00904.6065,E,1,06,1.20,122.4,M,47.908,M,,*7F
2$GPRMC,115607,A,4959.9685,N,00904.6065,E,0.3124,0.000,130507,,*26
3$GPGSA,A,3,20,02,23,27,25,13,,,,,,,2.8,1.2,1.0*3B
4$GPGGA,115608,4959.9685,N,00904.6056,E,1,06,1.20,123.7,M,47.908,M,,*72
5$GPRMC,115608,A,4959.9685,N,00904.6056,E,0.0472,234.230,130507,,*28
6$GPGSA,A,3,20,02,23,27,25,13,,,,,,,2.8,1.2,1.0*3B
7$GPGGA,115609,4959.9685,N,00904.6045,E,1,06,1.20,126.4,M,47.908,M,,*77
8$GPRMC,115609,A,4959.9685,N,00904.6045,E,0.0472,234.230,130507,,*2B
9$GPGSA,A,3,20,02,23,27,25,13,,,,,,,2.8,1.2,1.0*3B
10$GPGGA,115610,4959.9688,N,00904.6035,E,1,06,1.20,128.5,M,47.908,M,,*7A
11$GPRMC,115610,A,4959.9688,N,00904.6035,E,0.0472,234.230,130507,,*29
12$GPGSA,A,3,20,02,23,27,25,13,,,,,,,2.8,1.2,1.0*3B
13$GPGGA,115611,4959.9687,N,00904.6033,E,1,06,1.20,131.3,M,47.908,M,,*7C
14$GPRMC,115611,A,4959.9687,N,00904.6033,E,0.1562,0.000,130507,,*24
15$GPGSA,A,3,20,02,23,27,25,13,,,,,,,2.8,1.2,1.0*3B
16$GPGSV,3,1,09,20,33,103,32,02,22,312,32,23,72,063,29,27,16,180,37*75
17$GPGSV,3,2,09,17,06,226,00,25,47,144,41,13,72,232,30,04,53,282,00*7A
18$GPGSV,3,3,09,16,05,072,34*40
19$GPGGA,115612,4959.9686,N,00904.6031,E,1,06,1.20,132.7,M,47.908,M,,*7B
20$GPRMC,115612,A,4959.9686,N,00904.6031,E,0.1562,0.000,130507,,*24
21$GPGSA,A,3,20,02,23,27,25,13,,,,,,,2.8,1.2,1.0*3B
22$GPGGA,115613,4959.9690,N,00904.6022,E,1,06,1.20,134.8,M,47.908,M,,*76
23$GPRMC,115613,A,4959.9690,N,00904.6022,E,0.1562,0.000,130507,,*20
24$GPGSA,A,3,20,02,23,27,25,13,,,,,,,2.8,1.2,1.0*3B
25$GPGGA,115614,4959.9690,N,00904.6012,E,1,06,1.20,136.1,M,47.908,M,,*79
26$GPRMC,115614,A,4959.9690,N,00904.6012,E,0.1562,0.000,130507,,*24
27$GPGSA,A,3,20,02,23,27,25,13,,,,,,,2.8,1.2,1.0*3B
28$GPGGA,115615,4959.9689,N,00904.6011,E,1,05,1.60,137.5,M,47.908,M,,*71
29$GPRMC,115615,A,4959.9689,N,00904.6011,E,0.1562,0.000,130507,,*2E
30$GPGSA,A,3,20,02,23,27,25,,,,,,,,2.8,1.6,1.0*3D
31$GPGGA,115616,4959.9685,N,00904.6010,E,1,06,1.20,138.1,M,47.908,M,,*73
32$GPRMC,115616,A,4959.9685,N,00904.6010,E,0.1562,0.000,130507,,*20
33$GPGSA,A,3,20,02,23,27,25,13,,,,,,,2.8,1.2,1.0*3B
34$GPGSV,3,1,09,20,33,103,31,02,22,312,31,23,72,063,30,27,16,180,39*73
35$GPGSV,3,2,09,17,06,226,00,25,47,144,43,13,72,232,30,04,53,282,00*78
36$GPGSV,3,3,09,16,05,072,31*45
37$GPGGA,115617,4959.9690,N,00904.6003,E,1,06,1.20,137.4,M,47.908,M,,*7E
38$GPRMC,115617,A,4959.9690,N,00904.6003,E,0.0000,0.000,130507,,*27
39$GPGSA,A,3,20,02,23,27,25,13,,,,,,,2.8,1.2,1.0*3B
40$GPGGA,115618,4959.9686,N,00904.6003,E,1,06,1.20,136.6,M,47.908,M,,*75
41$GPRMC,115618,A,4959.9686,N,00904.6003,E,0.0000,0.000,130507,,*2F
42$GPGSA,A,3,20,02,23,27,25,13,,,,,,,2.8,1.2,1.0*3B
43$GPGGA,115619,4959.9686,N,00904.6003,E,1,06,1.20,136.6,M,47.908,M,,*74
44$GPRMC,115619,A,4959.9686,N,00904.6003,E,0.5331,256.431,130507,,*2D
45$GPGSA,A,3,20,02,23,27,25,13,,,,,,,2.8,1.2,1.0*3B
46$GPGGA,115620,4959.9686,N,00904.6003,E,1,06,1.20,136.6,M,47.908,M,,*7E
47$GPRMC,115620,A,4959.9686,N,00904.6003,E,0.1562,0.000,130507,,*24
48$GPGSA,A,3,20,02,23,27,25,13,,,,,,,2.8,1.2,1.0*3B
49$GPGGA,115621,4959.9690,N,00904.6004,E,1,07,1.20,136.0,M,47.908,M,,*78
50$GPRMC,115621,A,4959.9690,N,00904.6004,E,0.0472,234.230,130507,,*20
51$GPGSA,A,3,20,02,23,27,25,13,04,,,,,,2.8,1.2,1.0*3F
52$GPGSV,3,1,09,20,33,103,33,02,22,312,29,23,72,063,28,27,16,180,38*70
53$GPGSV,3,2,09,17,06,226,00,25,47,144,40,13,72,232,31,04,53,282,17*7C
54$GPGSV,3,3,09,16,05,072,31*45
55$GPGGA,115622,4959.9691,N,00904.5996,E,1,06,1.20,135.9,M,47.908,M,,*70
56$GPRMC,115622,A,4959.9691,N,00904.5996,E,0.0472,234.230,130507,,*23
57$GPGSA,A,3,20,02,23,27,25,13,,,,,,,2.8,1.2,1.0*3B
58$GPGGA,115623,4959.9687,N,00904.5994,E,1,06,1.20,136.5,M,47.908,M,,*7B
59$GPRMC,115623,A,4959.9687,N,00904.5994,E,0.0472,234.230,130507,,*27
60$GPGSA,A,3,20,02,23,27,25,13,,,,,,,2.8,1.2,1.0*3B
61$GPGGA,115624,4959.9683,N,00904.5993,E,1,06,1.20,137.1,M,47.908,M,,*7A
62$GPRMC,115624,A,4959.9683,N,00904.5993,E,0.4853,123.821,130507,,*27
63$GPGSA,A,3,20,02,23,27,25,13,,,,,,,2.8,1.2,1.0*3B
64$GPGGA,115625,4959.9686,N,00904.5993,E,1,05,1.40,137.9,M,47.908,M,,*73
65$GPRMC,115625,A,4959.9686,N,00904.5993,E,0.2909,145.859,130507,,*24
66$GPGSA,A,3,20,02,27,25,13,,,,,,,,2.8,1.4,1.0*3C
67$GPGGA,115626,4959.9686,N,00904.5993,E,1,05,1.40,137.9,M,47.908,M,,*70
68$GPRMC,115626,A,4959.9686,N,00904.5993,E,1.5122,77.783,130507,,*18
69$GPGSA,A,3,20,02,27,25,13,,,,,,,,2.8,1.4,1.0*3C
70$GPGSV,3,1,09,20,33,103,28,02,22,312,28,23,72,063,00,27,16,180,36*7F
71$GPGSV,3,2,09,17,06,226,00,25,47,144,38,13,72,232,31,04,53,282,00*75
72$GPGSV,3,3,09,16,05,072,33*47
73$GPGGA,115627,4959.9686,N,00904.6001,E,1,05,1.40,138.0,M,47.908,M,,*76
74$GPRMC,115627,A,4959.9686,N,00904.6001,E,0.4499,101.064,130507,,*23
75$GPGSA,A,3,20,02,27,25,13,,,,,,,,3.1,1.4,1.1*35
76$GPGGA,115628,4959.9685,N,00904.6000,E,1,04,2.80,139.4,M,47.908,M,,*70
77$GPRMC,115628,A,4959.9685,N,00904.6000,E,0.4426,163.602,130507,,*28
78$GPGSA,A,3,02,27,25,13,,,,,,,,,3.1,2.8,1.1*38
79$GPGGA,115629,4959.9685,N,00904.5999,E,1,04,2.80,140.8,M,47.908,M,,*79
80$GPRMC,115629,A,4959.9685,N,00904.5999,E,1.0280,283.847,130507,,*2E
81$GPGSA,A,3,02,27,25,13,,,,,,,,,3.1,2.8,1.1*38
82$GPGGA,115630,4959.9685,N,00904.5999,E,1,04,2.80,140.8,M,47.908,M,,*71
83$GPRMC,115630,A,4959.9685,N,00904.5999,E,0.6066,307.716,130507,,*2D
84$GPGSA,A,3,02,27,25,13,,,,,,,,,3.1,2.8,1.1*38
85$GPRMC,115631,V,4959.9684,N,00904.6000,E,0.0000,0.000,130507,,*32
86$GPGSA,A,1,,,,,,,,,,,,,,,,*32
87$GPGSV,3,1,09,20,33,103,39,02,22,312,27,23,72,063,39,27,16,180,41*7A
88$GPGSV,3,2,09,17,06,226,00,25,47,144,40,13,72,232,31,04,53,282,08*72
89$GPGSV,3,3,09,16,05,072,35*41
90$GPGGA,115632,4959.9675,N,00904.6123,E,1,04,3.40,112.3,M,47.908,M,,*77
91$GPRMC,115632,A,4959.9675,N,00904.6123,E,0.1562,0.000,130507,,*28
92$GPGSA,A,3,20,23,27,25,,,,,,,,,3.3,3.4,1.2*37
93$GPGGA,115633,4959.9630,N,00904.6159,E,1,04,3.40,119.3,M,47.908,M,,*71
94$GPRMC,115633,A,4959.9630,N,00904.6159,E,0.2095,105.782,130507,,*22
95$GPGSA,A,3,20,23,27,25,,,,,,,,,3.3,3.4,1.2*37
96$GPGGA,115634,4959.9680,N,00904.6197,E,1,06,1.80,106.3,M,47.908,M,,*7D
97$GPRMC,115634,A,4959.9680,N,00904.6197,E,0.4208,331.373,130507,,*23
98$GPGSA,A,3,20,23,27,25,13,04,,,,,,,3.3,1.8,1.2*3F
99$GPGGA,115635,4959.9695,N,00904.6257,E,1,05,3.20,98.7,M,47.908,M,,*4E
100$GPRMC,115635,A,4959.9695,N,00904.6257,E,0.1878,11.781,130507,,*19
101$GPGSA,A,3,20,23,27,25,13,,,,,,,,3.3,3.2,1.2*33
102$GPGGA,115636,4959.9706,N,00904.6317,E,1,05,3.20,90.4,M,47.908,M,,*48
103$GPRMC,115636,A,4959.9706,N,00904.6317,E,0.8060,81.199,130507,,*1A
104$GPGSA,A,3,20,23,27,25,13,,,,,,,,3.3,3.2,1.2*33
105$GPGSV,3,1,09,20,33,103,26,02,22,312,00,23,71,063,23,27,16,180,00*7C
106$GPGSV,3,2,09,17,06,226,00,25,48,144,09,13,72,232,25,04,54,282,00*7A
107$GPGSV,3,3,09,16,05,072,00*47
108$GPGGA,115637,4959.9708,N,00904.6353,E,1,04,4.60,88.8,M,47.908,M,,*40
109$GPRMC,115637,A,4959.9708,N,00904.6353,E,1.6431,75.809,130507,,*11
110$GPGSA,A,3,20,23,25,13,,,,,,,,,3.3,4.6,1.2*35
111$GPGGA,115638,4959.9720,N,00904.6367,E,1,04,3.60,85.6,M,47.908,M,,*46
112$GPRMC,115638,A,4959.9720,N,00904.6367,E,1.2776,335.582,130507,,*2E
113$GPGSA,A,3,20,23,13,04,,,,,,,,,3.3,3.6,1.2*31
114$GPGGA,115639,4959.9737,N,00904.6391,E,1,04,3.60,80.5,M,47.908,M,,*4E
115$GPRMC,115639,A,4959.9737,N,00904.6391,E,2.7890,30.602,130507,,*1C
116$GPGSA,A,3,20,23,13,04,,,,,,,,,3.3,3.6,1.2*31
117$GPGGA,115640,4959.9788,N,00904.6401,E,1,04,3.60,69.9,M,47.908,M,,*41
118$GPRMC,115640,A,4959.9788,N,00904.6401,E,7.8502,5.459,130507,,*2E
119$GPGSA,A,3,20,23,13,04,,,,,,,,,3.3,3.6,1.2*31
120$GPGGA,115641,4959.9851,N,00904.6448,E,1,04,3.60,58.7,M,47.908,M,,*4A
121$GPRMC,115641,A,4959.9851,N,00904.6448,E,12.5196,29.267,130507,,*2C
122$GPGSA,A,3,20,23,13,04,,,,,,,,,3.3,3.6,1.2*31
123$GPGSV,3,1,09,20,33,103,25,02,22,312,00,23,71,063,25,27,16,180,16*7E
124$GPGSV,3,2,09,17,06,226,00,25,48,144,00,13,72,232,25,04,54,282,25*74
125$GPGSV,3,3,09,16,05,072,25*40
126$GPGGA,115642,4959.9997,N,00904.6535,E,1,04,3.60,39.9,M,47.908,M,,*40
127$GPRMC,115642,A,4959.9997,N,00904.6535,E,36.9362,25.359,130507,,*2C
128$GPGSA,A,3,20,23,13,04,,,,,,,,,3.3,3.6,1.2*31
129$GPGGA,115643,5000.0192,N,00904.6680,E,1,04,3.60,22.7,M,47.908,M,,*48
130$GPRMC,115643,A,5000.0192,N,00904.6680,E,58.6860,25.193,130507,,*2A
131$GPGSA,A,3,20,23,13,04,,,,,,,,,3.3,3.6,1.2*31
132$GPGGA,115644,5000.0636,N,00904.6813,E,1,04,3.60,-4.6,M,47.907,M,,*55
133$GPRMC,115644,A,5000.0636,N,00904.6813,E,148.7369,5.403,130507,,*2D
134$GPGSA,A,3,20,23,13,04,,,,,,,,,3.3,3.6,1.2*31
135$GPRMC,115645,V,5000.0635,N,00904.6807,E,0.0000,0.000,130507,,*39
136$GPGSA,A,1,,,,,,,,,,,,,,,,*32
137$GPGGA,115646,4959.9735,N,00904.5738,E,1,03,16.60,139.5,M,47.908,M,,*40
138$GPRMC,115646,A,4959.9735,N,00904.5738,E,0.0000,0.000,130507,,*21
139$GPGSA,A,2,23,27,25,,,,,,,,,,3.3,16.6,1.2*02
140$GPGSV,3,1,09,20,33,103,34,02,22,312,35,23,71,063,41,27,16,180,38*76
141$GPGSV,3,2,09,17,06,226,00,25,48,144,43,13,73,232,30,04,54,282,36*74
142$GPGSV,3,3,09,16,05,072,00*47
143$GPGGA,115647,4959.9635,N,00904.5997,E,1,07,1.20,131.5,M,47.908,M,,*75
144$GPRMC,115647,A,4959.9635,N,00904.5997,E,0.1562,0.000,130507,,*2A
145$GPGSA,A,3,20,02,23,27,25,13,04,,,,,,2.0,1.2,0.9*3F
146$GPGGA,115648,4959.9631,N,00904.6066,E,1,07,1.20,129.5,M,47.908,M,,*73
147$GPRMC,115648,A,4959.9631,N,00904.6066,E,0.0000,0.000,130507,,*25
148$GPGSA,A,3,20,02,23,27,25,13,04,,,,,,2.0,1.2,0.9*3F
149$GPGGA,115649,4959.9644,N,00904.6081,E,1,07,1.20,124.9,M,47.908,M,,*78
150$GPRMC,115649,A,4959.9644,N,00904.6081,E,0.2095,105.782,130507,,*28
151$GPGSA,A,3,20,02,23,27,25,13,04,,,,,,2.0,1.2,0.9*3F
152$GPGGA,115650,4959.9651,N,00904.6091,E,1,07,1.20,125.1,M,47.908,M,,*7C
153$GPRMC,115650,A,4959.9651,N,00904.6091,E,0.3589,261.431,130507,,*26
154$GPGSA,A,3,20,02,23,27,25,13,04,,,,,,2.0,1.2,0.9*3F
155$GPGGA,115651,4959.9655,N,00904.6092,E,1,07,1.20,124.5,M,47.908,M,,*7F
156$GPRMC,115651,A,4959.9655,N,00904.6092,E,0.9115,34.649,130507,,*14
157$GPGSA,A,3,20,02,23,27,25,13,04,,,,,,2.0,1.2,0.9*3F
158$GPGSV,3,1,09,20,33,103,44,02,22,312,35,23,71,063,44,27,16,180,38*74
159$GPGSV,3,2,09,17,06,226,00,25,48,144,47,13,73,232,42,04,54,282,41*75
160$GPGSV,3,3,09,16,05,072,37*43
161$GPGGA,115652,4959.9659,N,00904.6084,E,1,07,1.20,125.1,M,47.908,M,,*72
162$GPRMC,115652,A,4959.9659,N,00904.6084,E,0.8449,296.188,130507,,*21
163$GPGSA,A,3,20,02,23,27,25,13,04,,,,,,2.0,1.2,0.9*3F
164$GPGGA,115653,4959.9663,N,00904.6085,E,1,07,1.20,124.5,M,47.908,M,,*7E
165$GPRMC,115653,A,4959.9663,N,00904.6085,E,1.0868,233.457,130507,,*26
166$GPGSA,A,3,20,02,23,27,25,13,04,,,,,,2.0,1.2,0.9*3F
167$GPGGA,115654,4959.9664,N,00904.6077,E,1,07,1.20,124.4,M,47.908,M,,*72
168$GPRMC,115654,A,4959.9664,N,00904.6077,E,0.3652,240.100,130507,,*2D
169$GPGSA,A,3,20,02,23,27,25,13,04,,,,,,2.0,1.2,0.9*3F
170$GPGGA,115655,4959.9668,N,00904.6078,E,1,07,1.20,123.8,M,47.908,M,,*7B
171$GPRMC,115655,A,4959.9668,N,00904.6078,E,1.9729,150.561,130507,,*28
172$GPGSA,A,3,20,02,23,27,25,13,04,,,,,,2.0,1.2,0.9*3F
173$GPGGA,115656,4959.9665,N,00904.6078,E,1,07,1.20,123.0,M,47.908,M,,*7D
174$GPRMC,115656,A,4959.9665,N,00904.6078,E,2.0848,73.238,130507,,*1F
175$GPGSA,A,3,20,02,23,27,25,13,04,,,,,,2.0,1.2,0.9*3F
176$GPGSV,3,1,09,20,33,103,42,02,22,312,39,23,71,063,46,27,16,180,37*73
177$GPGSV,3,2,09,17,06,226,00,25,48,144,44,13,73,232,43,04,54,282,44*72
178$GPGSV,3,3,09,16,05,072,00*47
179$GPGGA,115657,4959.9672,N,00904.6088,E,1,07,1.20,123.2,M,47.908,M,,*77
180$GPRMC,115657,A,4959.9672,N,00904.6088,E,2.5348,77.641,130507,,*17
181$GPGSA,A,3,20,02,23,27,25,13,04,,,,,,2.0,1.2,0.9*3F
182$GPGGA,115658,4959.9674,N,00904.6105,E,1,07,1.20,122.8,M,47.908,M,,*71
183$GPRMC,115658,A,4959.9674,N,00904.6105,E,5.6367,88.085,130507,,*1D
184$GPGSA,A,3,20,02,23,27,25,13,04,,,,,,2.0,1.2,0.9*3F
185$GPGGA,115659,4959.9681,N,00904.6133,E,1,07,1.20,121.8,M,47.908,M,,*7C
186$GPRMC,115659,A,4959.9681,N,00904.6133,E,8.4731,73.833,130507,,*1A
187$GPGSA,A,3,20,02,23,27,25,13,04,,,,,,2.0,1.2,0.9*3F
188$GPGGA,115700,4959.9690,N,00904.6169,E,1,07,1.20,121.7,M,47.908,M,,*71
189$GPRMC,115700,A,4959.9690,N,00904.6169,E,10.0871,70.204,130507,,*23
190$GPGSA,A,3,20,02,23,27,25,13,04,,,,,,2.0,1.2,0.9*3F
191$GPGGA,115701,4959.9699,N,00904.6214,E,1,07,1.20,120.3,M,47.908,M,,*75
192$GPRMC,115701,A,4959.9699,N,00904.6214,E,9.6579,68.912,130507,,*1C
193$GPGSA,A,3,20,02,23,27,25,13,04,,,,,,2.0,1.2,0.9*3F
194$GPGSV,3,1,09,20,33,103,42,02,22,312,35,23,71,063,46,27,16,180,37*7F
195$GPGSV,3,2,09,17,06,226,42,25,48,144,43,13,73,232,43,04,54,282,43*74
196$GPGSV,3,3,09,16,05,072,29*4C
197$GPGGA,115702,4959.9712,N,00904.6251,E,1,07,1.20,119.6,M,47.908,M,,*7A
198$GPRMC,115702,A,4959.9712,N,00904.6251,E,9.0245,66.745,130507,,*10
199$GPGSA,A,3,20,02,23,27,25,13,04,,,,,,2.0,1.2,0.9*3F
200$GPGGA,115703,4959.9721,N,00904.6287,E,1,07,1.20,119.5,M,47.908,M,,*73
201$GPRMC,115703,A,4959.9721,N,00904.6287,E,9.4453,68.222,130507,,*15
202$GPGSA,A,3,20,02,23,27,25,13,04,,,,,,2.0,1.2,0.9*3F
203$GPGGA,115704,4959.9734,N,00904.6324,E,1,07,1.20,118.8,M,47.908,M,,*74
204$GPRMC,115704,A,4959.9734,N,00904.6324,E,9.6579,68.912,130507,,*1D
205$GPGSA,A,3,20,02,23,27,25,13,04,,,,,,2.0,1.2,0.9*3F
206$GPGGA,115705,4959.9742,N,00904.6368,E,1,07,1.20,118.8,M,47.908,M,,*7C
207$GPRMC,115705,A,4959.9742,N,00904.6368,E,9.7874,64.690,130507,,*1D
208$GPGSA,A,3,20,02,23,27,25,13,04,,,,,,2.0,1.2,0.9*3F
209$GPGGA,115706,4959.9759,N,00904.6405,E,1,07,1.20,118.8,M,47.908,M,,*79
210$GPRMC,115706,A,4959.9759,N,00904.6405,E,9.5839,63.918,130507,,*1B
211$GPGSA,A,3,20,02,23,27,25,13,04,,,,,,2.0,1.2,0.9*3F
212$GPGSV,3,1,09,20,33,103,41,02,22,312,32,23,71,063,46,27,16,180,22*7F
213$GPGSV,3,2,09,17,06,226,34,25,48,144,43,13,73,232,45,04,54,282,43*73
214$GPGSV,3,3,09,16,05,072,21*44
215$GPGGA,115707,4959.9771,N,00904.6440,E,1,07,1.20,119.5,M,47.908,M,,*7F
216$GPRMC,115707,A,4959.9771,N,00904.6440,E,9.3822,63.113,130507,,*1E
217$GPGSA,A,3,20,02,23,27,25,13,04,,,,,,2.0,1.2,0.9*3F
218$GPGGA,115708,4959.9780,N,00904.6484,E,1,07,1.20,119.5,M,47.908,M,,*76
219$GPRMC,115708,A,4959.9780,N,00904.6484,E,8.9848,61.395,130507,,*1E
220$GPGSA,A,3,20,02,23,27,25,13,04,,,,,,2.0,1.2,0.9*3F
221$GPGGA,115709,4959.9797,N,00904.6513,E,1,07,1.20,119.4,M,47.908,M,,*7F
222$GPRMC,115709,A,4959.9797,N,00904.6513,E,8.5930,62.325,130507,,*1C
223$GPGSA,A,3,20,02,23,27,25,13,04,,,,,,2.0,1.2,0.9*3F
224$GPGGA,115710,4959.9806,N,00904.6549,E,1,07,1.20,119.3,M,47.908,M,,*78
225$GPRMC,115710,A,4959.9806,N,00904.6549,E,8.4711,60.459,130507,,*1E
226$GPGSA,A,3,20,02,23,27,25,13,04,,,,,,2.0,1.2,0.9*3F
227$GPGGA,115711,4959.9819,N,00904.6576,E,1,07,1.20,119.9,M,47.908,M,,*71
228$GPRMC,115711,A,4959.9819,N,00904.6576,E,8.1529,60.440,130507,,*19
229$GPGSA,A,3,20,02,23,27,25,13,04,,,,,,2.0,1.2,0.9*3F
230$GPGSV,3,1,09,20,33,103,37,02,22,312,40,23,71,063,45,27,16,180,37*7C
231$GPGSV,3,2,09,17,06,226,30,25,48,144,44,13,73,232,43,04,54,282,42*77
232$GPGSV,3,3,09,16,05,072,00*47
233$GPGGA,115712,4959.9829,N,00904.6604,E,1,07,1.20,119.7,M,47.908,M,,*79
234$GPRMC,115712,A,4959.9829,N,00904.6604,E,7.5634,60.356,130507,,*1B
235$GPGSA,A,3,20,02,23,27,25,13,04,,,,,,2.0,1.2,0.9*3F
236$GPGGA,115713,4959.9838,N,00904.6631,E,1,07,1.20,119.5,M,47.908,M,,*7C
237$GPRMC,115713,A,4959.9838,N,00904.6631,E,7.5634,60.356,130507,,*1C
238$GPGSA,A,3,20,02,23,27,25,13,04,,,,,,2.0,1.2,0.9*3F
239$GPGGA,115714,4959.9851,N,00904.6658,E,1,06,2.00,120.1,M,47.908,M,,*75
240$GPRMC,115714,A,4959.9851,N,00904.6658,E,6.8509,61.434,130507,,*18
241$GPGSA,A,3,20,02,23,25,13,04,,,,,,,2.0,2.0,0.9*3B
242$GPGGA,115715,4959.9857,N,00904.6685,E,1,07,1.20,120.5,M,47.908,M,,*76
243$GPRMC,115715,A,4959.9857,N,00904.6685,E,6.6557,60.225,130507,,*1D
244$GPGSA,A,3,20,02,23,27,25,13,04,,,,,,2.0,1.2,0.9*3F
245$GPGGA,115716,4959.9867,N,00904.6712,E,1,07,1.20,120.3,M,47.908,M,,*7F
246$GPRMC,115716,A,4959.9867,N,00904.6712,E,6.6557,60.225,130507,,*12
247$GPGSA,A,3,20,02,23,27,25,13,04,,,,,,2.0,1.2,0.9*3F
248$GPGSV,3,1,09,20,33,103,41,02,23,312,40,23,71,063,44,27,17,180,00*78
249$GPGSV,3,2,09,17,05,226,31,25,48,142,41,13,73,232,44,04,54,282,42*71
250$GPGSV,3,3,09,16,05,072,37*43
251$GPGGA,115717,4959.9876,N,00904.6730,E,1,06,2.00,121.4,M,47.908,M,,*78
252$GPRMC,115717,A,4959.9876,N,00904.6730,E,6.3427,63.990,130507,,*16
253$GPGSA,A,3,20,02,23,25,13,04,,,,,,,2.9,2.0,1.0*3A
254$GPGGA,115718,4959.9882,N,00904.6756,E,1,06,2.00,121.8,M,47.908,M,,*70
255$GPRMC,115718,A,4959.9882,N,00904.6756,E,5.8700,62.791,130507,,*12
256$GPGSA,A,3,20,02,23,25,13,04,,,,,,,2.9,2.0,1.0*3A
257$GPGGA,115719,4959.9892,N,00904.6775,E,1,07,1.20,121.5,M,47.908,M,,*7C
258$GPRMC,115719,A,4959.9892,N,00904.6775,E,5.6716,61.419,130507,,*1A
259$GPGSA,A,3,20,02,23,27,25,13,04,,,,,,2.9,1.2,1.0*3E
260$GPGGA,115720,4959.9895,N,00904.6793,E,1,07,1.20,121.1,M,47.908,M,,*7D
261$GPRMC,115720,A,4959.9895,N,00904.6793,E,5.4825,64.349,130507,,*15
262$GPGSA,A,3,20,02,23,27,25,13,04,,,,,,2.9,1.2,1.0*3E
263$GPGGA,115721,4959.9905,N,00904.6812,E,1,07,1.20,120.8,M,47.908,M,,*7A
264$GPRMC,115721,A,4959.9905,N,00904.6812,E,5.8747,58.685,130507,,*17
265$GPGSA,A,3,20,02,23,27,25,13,04,,,,,,2.9,1.2,1.0*3E
266$GPGSV,3,1,09,20,33,103,42,02,23,312,41,23,71,063,46,27,17,180,36*7D
267$GPGSV,3,2,09,17,05,226,00,25,48,142,43,13,73,232,44,04,54,282,40*73
268$GPGSV,3,3,09,16,05,072,36*42
269$GPGGA,115722,4959.9912,N,00904.6830,E,1,07,1.20,121.1,M,47.908,M,,*77
270$GPRMC,115722,A,4959.9912,N,00904.6830,E,6.3844,60.143,130507,,*10
271$GPGSA,A,3,20,02,23,27,25,13,04,,,,,,2.0,1.2,0.9*3F
272$GPGGA,115723,4959.9921,N,00904.6857,E,1,07,1.20,120.9,M,47.908,M,,*7E
273$GPRMC,115723,A,4959.9921,N,00904.6857,E,5.9506,70.919,130507,,*14
274$GPGSA,A,3,20,02,23,27,25,13,04,,,,,,2.0,1.2,0.9*3F
275$GPGGA,115724,4959.9923,N,00904.6883,E,1,07,1.20,120.6,M,47.908,M,,*7D
276$GPRMC,115724,A,4959.9923,N,00904.6883,E,5.6894,77.151,130507,,*12
277$GPGSA,A,3,20,02,23,27,25,13,04,,,,,,2.0,1.2,0.9*3F
278$GPGGA,115725,4959.9930,N,00904.6903,E,1,07,1.20,119.5,M,47.908,M,,*7E
279$GPRMC,115725,A,4959.9930,N,00904.6903,E,5.1241,78.929,130507,,*15
280$GPGSA,A,3,20,02,23,27,25,13,04,,,,,,2.0,1.2,0.9*3F
281$GPGGA,115726,4959.9928,N,00904.6927,E,1,07,1.20,119.8,M,47.908,M,,*7F
282$GPRMC,115726,A,4959.9928,N,00904.6927,E,4.8224,80.095,130507,,*1B
283$GPGSA,A,3,20,02,23,27,25,13,04,,,,,,2.0,1.2,0.9*3F
284$GPGSV,3,1,09,20,33,103,41,02,23,312,36,23,71,063,45,27,17,180,35*7E
285$GPGSV,3,2,09,17,05,226,36,25,48,142,45,13,73,232,43,04,54,282,45*72
286$GPGSV,3,3,09,16,05,072,37*43
287$GPGGA,115727,4959.9931,N,00904.6945,E,1,07,1.20,119.4,M,47.908,M,,*7E
288$GPRMC,115727,A,4959.9931,N,00904.6945,E,4.5916,79.218,130507,,*10
289$GPGSA,A,3,20,02,23,27,25,13,04,,,,,,2.0,1.2,0.9*3F
290$GPGGA,115728,4959.9937,N,00904.6963,E,1,07,1.20,119.7,M,47.908,M,,*70
291$GPRMC,115728,A,4959.9937,N,00904.6963,E,4.3965,76.257,130507,,*1B
292$GPGSA,A,3,20,02,23,27,25,13,04,,,,,,2.0,1.2,0.9*3F
293$GPGGA,115729,4959.9936,N,00904.6980,E,1,07,1.20,119.9,M,47.908,M,,*73
294$GPRMC,115729,A,4959.9936,N,00904.6980,E,4.2589,72.825,130507,,*12
295$GPGSA,A,3,20,02,23,27,25,13,04,,,,,,2.0,1.2,0.9*3F
296$GPGGA,115730,4959.9942,N,00904.6998,E,1,07,1.20,120.3,M,47.908,M,,*71
297$GPRMC,115730,A,4959.9942,N,00904.6998,E,4.2589,72.825,130507,,*10
298$GPGSA,A,3,20,02,23,27,25,13,04,,,,,,2.0,1.2,0.9*3F
299$GPGGA,115731,4959.9944,N,00904.7014,E,1,07,1.20,121.2,M,47.908,M,,*7A
300$GPRMC,115731,A,4959.9944,N,00904.7014,E,4.2589,72.825,130507,,*1B
301$GPGSA,A,3,20,02,23,27,25,13,04,,,,,,2.0,1.2,0.9*3F
302$GPGSV,3,1,09,20,33,103,42,02,23,312,37,23,71,063,45,27,17,180,39*70
303$GPGSV,3,2,09,17,05,226,39,25,48,142,44,13,73,232,44,04,54,282,45*7B
304$GPGSV,3,3,09,16,05,072,38*4C
305$GPGGA,115732,4959.9947,N,00904.7032,E,1,07,1.20,120.8,M,47.908,M,,*75
306$GPRMC,115732,A,4959.9947,N,00904.7032,E,4.1338,77.174,130507,,*18
307$GPGSA,A,3,20,02,23,27,25,13,04,,,,,,2.0,1.2,0.9*3F
308$GPGGA,115733,4959.9946,N,00904.7048,E,1,07,1.20,121.0,M,47.908,M,,*71
309$GPRMC,115733,A,4959.9946,N,00904.7048,E,4.3620,78.250,130507,,*11
310$GPGSA,A,3,20,02,23,27,25,13,04,,,,,,2.0,1.2,0.9*3F
311$GPGGA,115734,4959.9952,N,00904.7066,E,1,07,1.20,121.3,M,47.908,M,,*7C
312$GPRMC,115734,A,4959.9952,N,00904.7066,E,4.2589,72.825,130507,,*1C
313$GPGSA,A,3,20,02,23,27,25,13,04,,,,,,2.0,1.2,0.9*3F
314$GPGGA,115735,4959.9955,N,00904.7084,E,1,07,1.20,120.9,M,47.908,M,,*7D
315$GPRMC,115735,A,4959.9955,N,00904.7084,E,4.4806,74.090,130507,,*1A
316$GPGSA,A,3,20,02,23,27,25,13,04,,,,,,2.0,1.2,0.9*3F
317$GPGGA,115736,4959.9958,N,00904.7102,E,1,07,1.20,120.5,M,47.908,M,,*70
318$GPRMC,115736,A,4959.9958,N,00904.7102,E,4.4806,74.090,130507,,*1B
319$GPGSA,A,3,20,02,23,27,25,13,04,,,,,,2.0,1.2,0.9*3F
320$GPGSV,3,1,09,20,33,103,42,02,23,312,38,23,71,063,46,27,17,180,38*7D
321$GPGSV,3,2,09,17,05,226,40,25,48,142,44,13,73,232,43,04,54,282,45*72
322$GPGSV,3,3,09,16,05,072,38*4C
323$GPGGA,115737,4959.9959,N,00904.7127,E,1,07,1.20,121.6,M,47.908,M,,*75
324$GPRMC,115737,A,4959.9959,N,00904.7127,E,4.4806,74.090,130507,,*1C
325$GPGSA,A,3,20,02,23,27,25,13,04,,,,,,2.0,1.2,0.9*3F
326$GPGGA,115738,4959.9962,N,00904.7145,E,1,07,1.20,121.1,M,47.908,M,,*71
327$GPRMC,115738,A,4959.9962,N,00904.7145,E,4.4806,74.090,130507,,*1F
328$GPGSA,A,3,20,02,23,27,25,13,04,,,,,,2.0,1.2,0.9*3F
329$GPGGA,115739,4959.9968,N,00904.7162,E,1,07,1.20,121.5,M,47.908,M,,*7B
330$GPRMC,115739,A,4959.9968,N,00904.7162,E,4.7042,75.235,130507,,*16
331$GPGSA,A,3,20,02,23,27,25,13,04,,,,,,2.0,1.2,0.9*3F
332$GPGGA,115740,4959.9967,N,00904.7179,E,1,07,1.20,121.7,M,47.908,M,,*72
333$GPRMC,115740,A,4959.9967,N,00904.7179,E,4.4806,74.090,130507,,*1A
334$GPGSA,A,3,20,02,23,27,25,13,04,,,,,,2.0,1.2,0.9*3F
335$GPGGA,115741,4959.9973,N,00904.7197,E,1,07,1.20,122.0,M,47.908,M,,*72
336$GPRMC,115741,A,4959.9973,N,00904.7197,E,4.2589,72.825,130507,,*12
337$GPGSA,A,3,20,02,23,27,25,13,04,,,,,,2.0,1.2,0.9*3F
338$GPGSV,3,1,09,20,33,103,42,02,23,312,40,23,71,063,46,27,17,180,37*7D
339$GPGSV,3,2,09,17,05,226,38,25,48,142,45,13,73,232,44,04,54,282,45*7B
340$GPGSV,3,3,09,16,05,072,37*43
341$GPGGA,115742,4959.9976,N,00904.7215,E,1,07,1.20,121.6,M,47.908,M,,*78
342$GPRMC,115742,A,4959.9976,N,00904.7215,E,4.3530,70.662,130507,,*11
343$GPGSA,A,3,20,02,23,27,25,13,04,,,,,,2.0,1.2,0.9*3F
344$GPGGA,115743,4959.9982,N,00904.7233,E,1,07,1.20,121.9,M,47.908,M,,*79
345$GPRMC,115743,A,4959.9982,N,00904.7233,E,4.2589,72.825,130507,,*13
346$GPGSA,A,3,20,02,23,27,25,13,04,,,,,,2.0,1.2,0.9*3F
347$GPGGA,115744,4959.9985,N,00904.7250,E,1,07,1.20,121.5,M,47.908,M,,*70
348$GPRMC,115744,A,4959.9985,N,00904.7250,E,4.4806,74.090,130507,,*1A
349$GPGSA,A,3,20,02,23,27,25,13,04,,,,,,2.0,1.2,0.9*3F
350$GPGGA,115745,4959.9988,N,00904.7268,E,1,07,1.20,121.0,M,47.908,M,,*72
351$GPRMC,115745,A,4959.9988,N,00904.7268,E,4.4806,74.090,130507,,*1D
352$GPGSA,A,3,20,02,23,27,25,13,04,,,,,,2.0,1.2,0.9*3F
353$GPGGA,115746,4959.9990,N,00904.7285,E,1,07,1.20,122.0,M,47.908,M,,*78
354$GPRMC,115746,A,4959.9990,N,00904.7285,E,4.4806,74.090,130507,,*14
355$GPGSA,A,3,20,02,23,27,25,13,04,,,,,,2.0,1.2,0.9*3F
356$GPGSV,3,1,09,20,32,103,42,02,23,312,38,23,71,063,45,27,17,180,40*70
357$GPGSV,3,2,09,17,05,226,35,25,48,142,45,13,73,232,44,04,54,282,45*76
358$GPGSV,3,3,09,16,05,070,36*40
359$GPGGA,115747,4959.9992,N,00904.7311,E,1,07,1.20,121.7,M,47.908,M,,*73
360$GPRMC,115747,A,4959.9992,N,00904.7311,E,4.2589,72.825,130507,,*17
361$GPGSA,A,3,20,02,23,27,25,13,04,,,,,,2.0,1.2,0.9*3F
362$GPGGA,115748,4959.9995,N,00904.7329,E,1,07,1.20,121.2,M,47.908,M,,*75
363$GPRMC,115748,A,4959.9995,N,00904.7329,E,4.1338,77.175,130507,,*12
364$GPGSA,A,3,20,02,23,27,25,13,04,,,,,,2.0,1.2,0.9*3F
365$GPGGA,115749,5000.0001,N,00904.7347,E,1,07,1.20,121.6,M,47.908,M,,*71
366$GPRMC,115749,A,5000.0001,N,00904.7347,E,4.2589,72.825,130507,,*14
367$GPGSA,A,3,20,02,23,27,25,13,04,,,,,,2.0,1.2,0.9*3F
368$GPGGA,115750,4960.0000,N,00904.7363,E,1,07,1.20,121.8,M,47.908,M,,*7E
369$GPRMC,115750,A,4960.0000,N,00904.7363,E,4.2589,72.825,130507,,*15
370$GPGSA,A,3,20,02,23,27,25,13,04,,,,,,2.0,1.2,0.9*3F
371$GPGGA,115751,5000.0003,N,00904.7381,E,1,07,1.20,121.3,M,47.908,M,,*75
372$GPRMC,115751,A,5000.0003,N,00904.7381,E,4.2589,72.825,130507,,*15
373$GPGSA,A,3,20,02,23,27,25,13,04,,,,,,2.0,1.2,0.9*3F
374$GPGSV,3,1,09,20,32,103,42,02,23,312,38,23,71,063,46,27,17,180,38*7C
375$GPGSV,3,2,09,17,05,226,35,25,48,142,43,13,73,232,44,04,54,282,45*70
376$GPGSV,3,3,09,16,05,070,36*40
377$GPGGA,115752,5000.0009,N,00904.7399,E,1,07,1.20,121.7,M,47.908,M,,*71
378$GPRMC,115752,A,5000.0009,N,00904.7399,E,4.3620,78.250,130507,,*16
379$GPGSA,A,3,20,02,23,27,25,13,04,,,,,,2.0,1.2,0.9*3F
380$GPGGA,115753,5000.0008,N,00904.7415,E,1,07,1.20,121.9,M,47.908,M,,*7C
381$GPRMC,115753,A,5000.0008,N,00904.7415,E,4.4806,74.090,130507,,*1A
382$GPGSA,A,3,20,02,23,27,25,13,04,,,,,,2.0,1.2,0.9*3F
383$GPGGA,115754,5000.0014,N,00904.7433,E,1,07,1.20,122.2,M,47.908,M,,*7A
384$GPRMC,115754,A,5000.0014,N,00904.7433,E,4.3965,76.257,130507,,*1C
385$GPGSA,A,3,20,02,23,27,25,13,04,,,,,,2.0,1.2,0.9*3F
386$GPGGA,115755,5000.0017,N,00904.7451,E,1,07,1.20,121.8,M,47.908,M,,*75
387$GPRMC,115755,A,5000.0017,N,00904.7451,E,3.9480,73.774,130507,,*10
388$GPGSA,A,3,20,02,23,27,25,13,04,,,,,,2.0,1.2,0.9*3F
389$GPGGA,115756,5000.0016,N,00904.7459,E,1,07,1.20,121.9,M,47.908,M,,*7E
390$GPRMC,115756,A,5000.0016,N,00904.7459,E,2.0452,77.433,130507,,*19
391$GPGSA,A,3,20,02,23,27,25,13,04,,,,,,2.0,1.2,0.9*3F
392$GPGSV,3,1,09,20,32,103,36,02,23,312,41,23,71,063,46,27,17,180,38*71
393$GPGSV,3,2,09,17,05,226,37,25,48,142,43,13,73,232,45,04,54,282,48*7E
394$GPGSV,3,3,09,16,05,070,07*42
395$GPGGA,115757,5000.0019,N,00904.7459,E,1,07,1.20,122.7,M,47.908,M,,*7D
396$GPRMC,115757,A,5000.0019,N,00904.7459,E,0.3183,240.972,130507,,*21
397$GPGSA,A,3,20,02,23,27,25,13,04,,,,,,2.0,1.2,0.9*3F
398$GPGGA,115758,5000.0019,N,00904.7459,E,1,07,1.20,122.7,M,47.908,M,,*72
399$GPRMC,115758,A,5000.0019,N,00904.7459,E,0.6843,6.434,130507,,*21
400$GPGSA,A,3,20,02,23,27,25,13,04,,,,,,2.0,1.2,0.9*3F
401$GPGGA,115759,5000.0019,N,00904.7458,E,1,07,1.20,124.1,M,47.908,M,,*72
402$GPRMC,115759,A,5000.0019,N,00904.7458,E,0.1562,0.000,130507,,*2D
403$GPGSA,A,3,20,02,23,27,25,13,04,,,,,,2.0,1.2,0.9*3F
404$GPGGA,115800,5000.0019,N,00904.7458,E,1,07,1.20,124.1,M,47.908,M,,*71
405$GPRMC,115800,A,5000.0019,N,00904.7458,E,0.1562,0.000,130507,,*2E
406$GPGSA,A,3,20,02,23,27,25,13,04,,,,,,2.0,1.2,0.9*3F
407$GPGGA,115801,5000.0019,N,00904.7458,E,1,07,1.20,124.1,M,47.908,M,,*70
408$GPRMC,115801,A,5000.0019,N,00904.7458,E,0.1562,0.000,130507,,*2F
409$GPGSA,A,3,20,02,23,27,25,13,04,,,,,,2.0,1.2,0.9*3F
410$GPGSV,3,1,09,20,32,103,38,02,23,312,45,23,71,063,48,27,17,180,32*7F
411$GPGSV,3,2,09,17,05,226,38,25,48,142,41,13,73,232,44,04,54,282,45*7F
412$GPGSV,3,3,09,16,05,070,31*47
413$GPGGA,115802,5000.0019,N,00904.7458,E,1,07,1.20,124.1,M,47.908,M,,*73
414$GPRMC,115802,A,5000.0019,N,00904.7458,E,0.2934,136.599,130507,,*21
415$GPGSA,A,3,20,02,23,27,25,13,04,,,,,,2.0,1.2,0.9*3F
416$GPGGA,115803,5000.0019,N,00904.7458,E,1,07,1.20,124.1,M,47.908,M,,*72
417$GPRMC,115803,A,5000.0019,N,00904.7458,E,0.2095,105.785,130507,,*2D
418$GPGSA,A,3,20,02,23,27,25,13,04,,,,,,2.0,1.2,0.9*3F
419$GPGGA,115804,5000.0022,N,00904.7458,E,1,07,1.20,124.8,M,47.908,M,,*74
420$GPRMC,115804,A,5000.0022,N,00904.7458,E,0.1562,0.000,130507,,*22
421$GPGSA,A,3,20,02,23,27,25,13,04,,,,,,2.0,1.2,0.9*3F
422$GPGGA,115805,5000.0019,N,00904.7458,E,1,07,1.20,124.1,M,47.908,M,,*74
423$GPRMC,115805,A,5000.0019,N,00904.7458,E,0.1562,0.000,130507,,*2B
424$GPGSA,A,3,20,02,23,27,25,13,04,,,,,,2.0,1.2,0.9*3F
425$GPGGA,115806,5000.0019,N,00904.7458,E,1,07,1.20,124.1,M,47.908,M,,*77
426$GPRMC,115806,A,5000.0019,N,00904.7458,E,0.3755,191.783,130507,,*29
427$GPGSA,A,3,20,02,23,27,25,13,04,,,,,,2.0,1.2,0.9*3F
428$GPGSV,3,1,09,20,32,103,41,02,23,312,39,23,71,063,47,27,17,180,40*70
429$GPGSV,3,2,09,17,05,226,36,25,48,142,45,13,73,232,45,04,54,282,43*72
430$GPGSV,3,3,09,16,05,070,31*47
431$GPGGA,115807,5000.0015,N,00904.7457,E,1,07,1.20,124.7,M,47.908,M,,*73
432$GPRMC,115807,A,5000.0015,N,00904.7457,E,0.7337,111.753,130507,,*2A
433$GPGSA,A,3,20,02,23,27,25,13,04,,,,,,2.0,1.2,0.9*3F
434$GPGGA,115808,5000.0019,N,00904.7458,E,1,07,1.20,124.1,M,47.908,M,,*79
435$GPRMC,115808,A,5000.0019,N,00904.7458,E,1.5782,56.412,130507,,*1B
436$GPGSA,A,3,20,02,23,27,25,13,04,,,,,,2.0,1.2,0.9*3F
437$GPGGA,115809,5000.0017,N,00904.7465,E,1,07,1.20,125.6,M,47.908,M,,*7E
438$GPRMC,115809,A,5000.0017,N,00904.7465,E,1.2864,74.243,130507,,*18
439$GPGSA,A,3,20,02,23,27,25,13,04,,,,,,2.0,1.2,0.9*3F
440$GPGGA,115810,5000.0017,N,00904.7465,E,1,07,1.20,125.6,M,47.908,M,,*76
441$GPRMC,115810,A,5000.0017,N,00904.7465,E,2.0452,77.433,130507,,*1A
442$GPGSA,A,3,20,02,23,27,25,13,04,,,,,,2.0,1.2,0.9*3F
443$GPGGA,115811,5000.0021,N,00904.7474,E,1,07,1.20,125.0,M,47.908,M,,*74
444$GPRMC,115811,A,5000.0021,N,00904.7474,E,2.2744,79.471,130507,,*10
445$GPGSA,A,3,20,02,23,27,25,13,04,,,,,,2.0,1.2,0.9*3F
446$GPGSV,3,1,09,20,32,103,41,02,23,312,37,23,71,063,45,27,17,180,37*7C
447$GPGSV,3,2,09,17,05,226,34,25,48,142,43,13,73,232,42,04,54,282,45*77
448$GPGSV,3,3,09,16,05,070,38*4E
449$GPGGA,115812,5000.0020,N,00904.7491,E,1,07,1.20,125.2,M,47.908,M,,*7F
450$GPRMC,115812,A,5000.0020,N,00904.7491,E,2.7234,85.774,130507,,*1B
451$GPGSA,A,3,20,02,23,27,25,13,04,,,,,,2.0,1.2,0.9*3F
452$GPGGA,115813,5000.0023,N,00904.7501,E,1,07,1.20,124.7,M,47.908,M,,*71
453$GPRMC,115813,A,5000.0023,N,00904.7501,E,3.2699,81.524,130507,,*15
454$GPGSA,A,3,20,02,23,27,25,13,04,,,,,,2.0,1.2,0.9*3F
455$GPGGA,115814,5000.0021,N,00904.7525,E,1,07,1.20,125.0,M,47.908,M,,*74
456$GPRMC,115814,A,5000.0021,N,00904.7525,E,4.4806,74.090,130507,,*1F
457$GPGSA,A,3,20,02,23,27,25,13,04,,,,,,2.0,1.2,0.9*3F
458$GPGGA,115815,5000.0024,N,00904.7543,E,1,07,1.20,124.6,M,47.908,M,,*77
459$GPRMC,115815,A,5000.0024,N,00904.7543,E,5.1518,70.811,130507,,*18
460$GPGSA,A,3,20,02,23,27,25,13,04,,,,,,2.0,1.2,0.9*3F
461$GPGGA,115816,5000.0034,N,00904.7562,E,1,07,1.20,124.3,M,47.908,M,,*73
462$GPRMC,115816,A,5000.0034,N,00904.7562,E,4.8385,71.455,130507,,*1E
463$GPGSA,A,3,20,02,23,27,25,13,04,,,,,,2.0,1.2,0.9*3F
464$GPGSV,3,1,09,20,32,103,44,02,23,312,40,23,71,063,46,27,17,180,39*74
465$GPGSV,3,2,09,17,05,226,37,25,48,142,45,13,73,232,44,04,54,280,45*76
466$GPGSV,3,3,09,16,06,070,37*42
467$GPGGA,115817,5000.0036,N,00904.7589,E,1,07,1.20,123.9,M,47.908,M,,*78
468$GPRMC,115817,A,5000.0036,N,00904.7589,E,4.7911,73.227,130507,,*11
469$GPGSA,A,3,20,02,23,27,25,13,04,,,,,,2.0,1.2,0.9*3F
470$GPGGA,115818,5000.0039,N,00904.7606,E,1,07,1.20,123.5,M,47.908,M,,*70
471$GPRMC,115818,A,5000.0039,N,00904.7606,E,5.0133,74.339,130507,,*12
472$GPGSA,A,3,20,02,23,27,25,13,04,,,,,,2.0,1.2,0.9*3F
473$GPGGA,115819,5000.0041,N,00904.7623,E,1,07,1.20,124.5,M,47.908,M,,*7E
474$GPRMC,115819,A,5000.0041,N,00904.7623,E,5.0577,72.636,130507,,*13
475$GPGSA,A,3,20,02,23,27,25,13,04,,,,,,2.0,1.2,0.9*3F
476$GPGGA,115820,5000.0047,N,00904.7650,E,1,07,1.20,123.5,M,47.908,M,,*71
477$GPRMC,115820,A,5000.0047,N,00904.7650,E,5.8114,73.966,130507,,*19
478$GPGSA,A,3,20,02,23,27,25,13,04,,,,,,2.0,1.2,0.9*3F
479$GPGGA,115821,5000.0053,N,00904.7676,E,1,07,1.20,123.9,M,47.908,M,,*7D
480$GPRMC,115821,A,5000.0053,N,00904.7676,E,6.0346,74.863,130507,,*14
481$GPGSA,A,3,20,02,23,27,25,13,04,,,,,,2.0,1.2,0.9*3F
482$GPGSV,3,1,09,20,32,103,42,02,23,312,38,23,71,063,46,27,17,180,39*7D
483$GPGSV,3,2,09,17,05,226,37,25,48,142,44,13,73,232,44,04,54,280,45*77
484$GPGSV,3,3,09,16,06,070,35*40
485$GPGGA,115822,5000.0055,N,00904.7703,E,1,07,1.20,123.6,M,47.908,M,,*74
486$GPRMC,115822,A,5000.0055,N,00904.7703,E,6.2225,77.090,130507,,*13
487$GPGSA,A,3,20,02,23,27,25,13,04,,,,,,2.0,1.2,0.9*3F
488$GPGGA,115823,5000.0061,N,00904.7729,E,1,07,1.20,124.0,M,47.908,M,,*7B
489$GPRMC,115823,A,5000.0061,N,00904.7729,E,6.3441,74.173,130507,,*17
490$GPGSA,A,3,20,02,23,27,25,13,04,,,,,,2.0,1.2,0.9*3F
491$GPGGA,115824,5000.0063,N,00904.7755,E,1,07,1.20,123.7,M,47.908,M,,*75
492$GPRMC,115824,A,5000.0063,N,00904.7755,E,6.2592,75.697,130507,,*1B
493$GPGSA,A,3,20,02,23,27,25,13,04,,,,,,2.0,1.2,0.9*3F
494$GPGGA,115825,5000.0068,N,00904.7781,E,1,07,1.20,124.1,M,47.908,M,,*77
495$GPRMC,115825,A,5000.0068,N,00904.7781,E,6.0346,74.864,130507,,*16
496$GPGSA,A,3,20,02,23,27,25,13,04,,,,,,2.0,1.2,0.9*3F
497$GPGGA,115826,5000.0074,N,00904.7807,E,1,07,1.20,124.6,M,47.908,M,,*7F
498$GPRMC,115826,A,5000.0074,N,00904.7807,E,5.8114,73.966,130507,,*13
499$GPGSA,A,3,20,02,23,27,25,13,04,,,,,,2.0,1.2,0.9*3F
500$GPGSV,3,1,09,20,32,103,41,02,23,312,40,23,71,063,47,27,17,180,38*71
501$GPGSV,3,2,09,17,05,226,38,25,48,142,43,13,73,232,44,04,54,280,45*7F
502$GPGSV,3,3,09,16,06,070,34*41
503$GPGGA,115827,5000.0077,N,00904.7825,E,1,07,1.20,124.2,M,47.908,M,,*79
504$GPRMC,115827,A,5000.0077,N,00904.7825,E,5.5018,74.712,130507,,*1B
505$GPGSA,A,3,20,02,23,27,25,13,04,,,,,,2.0,1.2,0.9*3F
506$GPGGA,115828,5000.0082,N,00904.7851,E,1,07,1.20,124.6,M,47.908,M,,*7B
507$GPRMC,115828,A,5000.0082,N,00904.7851,E,5.0133,74.340,130507,,*13
508$GPGSA,A,3,20,02,23,27,25,13,04,,,,,,2.0,1.2,0.9*3F
509$GPGGA,115829,5000.0085,N,00904.7869,E,1,07,1.20,124.2,M,47.908,M,,*72
510$GPRMC,115829,A,5000.0085,N,00904.7869,E,4.9296,76.277,130507,,*1D
511$GPGSA,A,3,20,02,23,27,25,13,04,,,,,,2.0,1.2,0.9*3F
512$GPGGA,115830,5000.0091,N,00904.7895,E,1,07,1.20,124.6,M,47.908,M,,*78
513$GPRMC,115830,A,5000.0091,N,00904.7895,E,4.9296,76.277,130507,,*13
514$GPGSA,A,3,20,02,23,27,25,13,04,,,,,,2.0,1.2,0.9*3F
515$GPGGA,115831,5000.0094,N,00904.7913,E,1,07,1.20,124.2,M,47.908,M,,*77
516$GPRMC,115831,A,5000.0094,N,00904.7913,E,4.7042,75.236,130507,,*1B
517$GPGSA,A,3,20,02,23,27,25,13,04,,,,,,2.0,1.2,0.9*3F
518$GPGSV,3,1,09,20,32,103,41,02,23,312,37,23,71,063,46,27,17,180,39*71
519$GPGSV,3,2,09,17,05,226,37,25,48,142,45,13,73,232,45,04,54,280,46*74
520$GPGSV,3,3,09,16,06,070,34*41
521$GPGGA,115832,5000.0092,N,00904.7929,E,1,07,1.20,124.4,M,47.908,M,,*7D
522$GPRMC,115832,A,5000.0092,N,00904.7929,E,4.3620,78.251,130507,,*1D
523$GPGSA,A,3,20,02,23,27,25,13,04,,,,,,2.0,1.2,0.9*3F
524$GPGGA,115833,5000.0098,N,00904.7955,E,1,07,1.20,124.8,M,47.908,M,,*71
525$GPRMC,115833,A,5000.0098,N,00904.7955,E,4.3620,78.251,130507,,*1D
526$GPGSA,A,3,20,02,23,27,25,13,04,,,,,,2.0,1.2,0.9*3F
527$GPGGA,115834,5000.0101,N,00904.7973,E,1,07,1.20,124.4,M,47.908,M,,*7F
528$GPRMC,115834,A,5000.0101,N,00904.7973,E,4.3620,78.251,130507,,*1F
529$GPGSA,A,3,20,02,23,27,25,13,04,,,,,,2.0,1.2,0.9*3F
530$GPGGA,115835,5000.0103,N,00904.7990,E,1,07,1.20,125.3,M,47.908,M,,*77
531$GPRMC,115835,A,5000.0103,N,00904.7990,E,4.5916,79.220,130507,,*1A
532$GPGSA,A,3,20,02,23,27,25,13,04,,,,,,2.0,1.2,0.9*3F
533$GPGGA,115836,5000.0106,N,00904.8008,E,1,07,1.20,124.9,M,47.908,M,,*7D
534$GPRMC,115836,A,5000.0106,N,00904.8008,E,4.5916,79.220,130507,,*1B
535$GPGSA,A,3,20,02,23,27,25,13,04,,,,,,2.0,1.2,0.9*3F
536$GPGSV,3,1,09,20,32,103,42,02,23,312,38,23,71,063,45,27,17,180,39*7E
537$GPGSV,3,2,09,17,05,226,38,25,48,142,44,13,73,232,42,04,54,280,46*7D
538$GPGSV,3,3,09,16,06,070,32*47
539$GPGGA,115837,5000.0104,N,00904.8032,E,1,07,1.20,125.2,M,47.908,M,,*7D
540$GPRMC,115837,A,5000.0104,N,00904.8032,E,4.2676,82.620,130507,,*1F
541$GPGSA,A,3,20,02,23,27,25,13,04,,,,,,2.0,1.2,0.9*3F
542$GPGGA,115838,5000.0106,N,00904.8049,E,1,07,1.20,126.2,M,47.908,M,,*7F
543$GPRMC,115838,A,5000.0106,N,00904.8049,E,4.2676,82.620,130507,,*1E
544$GPGSA,A,3,20,02,23,27,25,13,04,,,,,,2.0,1.2,0.9*3F
545$GPGGA,115839,5000.0109,N,00904.8067,E,1,07,1.20,125.7,M,47.908,M,,*7B
546$GPRMC,115839,A,5000.0109,N,00904.8067,E,4.5022,83.383,130507,,*11
547$GPGSA,A,3,20,02,23,27,25,13,04,,,,,,2.0,1.2,0.9*3F
548$GPGGA,115840,5000.0107,N,00904.8083,E,1,07,1.20,125.9,M,47.908,M,,*7F
549$GPRMC,115840,A,5000.0107,N,00904.8083,E,4.5022,83.383,130507,,*1B
550$GPGSA,A,3,20,02,23,27,25,13,04,,,,,,2.0,1.2,0.9*3F
551$GPGGA,115841,5000.0113,N,00904.8109,E,1,07,1.20,126.4,M,47.908,M,,*76
552$GPRMC,115841,A,5000.0113,N,00904.8109,E,4.7375,84.070,130507,,*17
553$GPGSA,A,3,20,02,23,27,25,13,04,,,,,,2.0,1.2,0.9*3F
554$GPGSV,3,1,09,20,32,103,41,02,23,312,36,23,71,063,46,27,17,180,38*71
555$GPGSV,3,2,09,17,05,226,39,25,48,142,45,13,73,232,44,04,54,280,46*7B
556$GPGSV,3,3,09,16,06,070,31*44
557$GPGGA,115842,5000.0112,N,00904.8126,E,1,07,1.20,126.6,M,47.908,M,,*7B
558$GPRMC,115842,A,5000.0112,N,00904.8126,E,4.7375,84.070,130507,,*18
559$GPGSA,A,3,20,02,23,27,25,13,04,,,,,,2.0,1.2,0.9*3F
560$GPGGA,115843,5000.0114,N,00904.8144,E,1,07,1.20,126.2,M,47.908,M,,*7C
561$GPRMC,115843,A,5000.0114,N,00904.8144,E,4.7375,84.070,130507,,*1B
562$GPGSA,A,3,20,02,23,27,25,13,04,,,,,,2.0,1.2,0.9*3F
563$GPGGA,115844,5000.0112,N,00904.8169,E,1,07,1.20,126.5,M,47.908,M,,*75
564$GPRMC,115844,A,5000.0112,N,00904.8169,E,4.6762,88.168,130507,,*12
565$GPGSA,A,3,20,02,23,27,25,13,04,,,,,,2.0,1.2,0.9*3F
566$GPGGA,115845,5000.0115,N,00904.8186,E,1,07,1.20,126.0,M,47.908,M,,*77
567$GPRMC,115845,A,5000.0115,N,00904.8186,E,4.7375,84.070,130507,,*12
568$GPGSA,A,3,20,02,23,27,25,13,04,,,,,,2.0,1.2,0.9*3F
569$GPGGA,115846,5000.0118,N,00904.8204,E,1,07,1.20,125.6,M,47.908,M,,*75
570$GPRMC,115846,A,5000.0118,N,00904.8204,E,4.4375,87.690,130507,,*1D
571$GPGSA,A,3,20,02,23,27,25,13,04,,,,,,2.0,1.2,0.9*3F
572$GPGSV,3,1,09,20,32,105,42,02,23,312,37,23,70,063,46,27,17,180,39*75
573$GPGSV,3,2,09,17,05,225,39,25,48,142,45,13,74,232,45,04,54,280,46*7E
574$GPGSV,3,3,09,16,06,070,29*4D
575$GPGGA,115847,5000.0117,N,00904.8221,E,1,07,1.20,125.8,M,47.908,M,,*72
576$GPRMC,115847,A,5000.0117,N,00904.8221,E,4.4375,87.690,130507,,*14
577$GPGSA,A,3,20,02,23,27,25,13,04,,,,,,2.0,1.2,0.9*3F
578$GPGGA,115848,5000.0115,N,00904.8246,E,1,07,1.20,126.1,M,47.908,M,,*74
579$GPRMC,115848,A,5000.0115,N,00904.8246,E,4.4375,87.690,130507,,*18
580$GPGSA,A,3,20,02,23,27,25,13,04,,,,,,2.0,1.2,0.9*3F
581$GPGGA,115849,5000.0117,N,00904.8263,E,1,07,1.20,125.7,M,47.908,M,,*75
582$GPRMC,115849,A,5000.0117,N,00904.8263,E,4.6762,88.169,130507,,*12
583$GPGSA,A,3,20,02,23,27,25,13,04,,,,,,2.0,1.2,0.9*3F
584$GPGGA,115850,5000.0116,N,00904.8280,E,1,07,1.20,125.9,M,47.908,M,,*7F
585$GPRMC,115850,A,5000.0116,N,00904.8280,E,4.9152,88.600,130507,,*14
586$GPGSA,A,3,20,02,23,27,25,13,04,,,,,,2.0,1.2,0.9*3F
587$GPGGA,115851,5000.0118,N,00904.8306,E,1,07,1.20,125.5,M,47.908,M,,*73
588$GPRMC,115851,A,5000.0118,N,00904.8306,E,4.9152,88.600,130507,,*14
589$GPGSA,A,3,20,02,23,27,25,13,04,,,,,,2.0,1.2,0.9*3F
590$GPGSV,3,1,09,20,32,105,42,02,23,312,37,23,70,063,46,27,17,180,38*74
591$GPGSV,3,2,09,17,05,225,38,25,48,142,45,13,74,232,43,04,54,280,46*79
592$GPGSV,3,3,09,16,06,070,28*4C
593$GPGGA,115852,5000.0117,N,00904.8323,E,1,07,1.20,125.7,M,47.908,M,,*7A
594$GPRMC,115852,A,5000.0117,N,00904.8323,E,4.9152,88.600,130507,,*1F
595$GPGSA,A,3,20,02,23,27,25,13,04,,,,,,2.0,1.2,0.9*3F
596$GPGGA,115853,5000.0115,N,00904.8347,E,1,07,1.20,126.1,M,47.908,M,,*7E
597$GPRMC,115853,A,5000.0115,N,00904.8347,E,4.6762,88.169,130507,,*1C
598$GPGSA,A,3,20,02,23,27,25,13,04,,,,,,2.0,1.2,0.9*3F
599$GPGGA,115854,5000.0117,N,00904.8364,E,1,07,1.20,127.0,M,47.908,M,,*7A
600$GPRMC,115854,A,5000.0117,N,00904.8364,E,4.6762,88.169,130507,,*18
601$GPGSA,A,3,20,02,23,27,25,13,04,,,,,,2.0,1.2,0.9*3F
602$GPGGA,115855,5000.0120,N,00904.8382,E,1,07,1.20,126.6,M,47.908,M,,*70
603$GPRMC,115855,A,5000.0120,N,00904.8382,E,4.6762,88.169,130507,,*15
604$GPGSA,A,3,20,02,23,27,25,13,04,,,,,,2.0,1.2,0.9*3F
605$GPGGA,115856,5000.0118,N,00904.8407,E,1,07,1.20,126.9,M,47.908,M,,*7D
606$GPRMC,115856,A,5000.0118,N,00904.8407,E,4.6762,88.169,130507,,*17
607$GPGSA,A,3,20,02,23,27,25,13,04,,,,,,2.0,1.2,0.9*3F
608$GPGSV,3,1,09,20,32,105,42,02,23,312,36,23,70,063,47,27,17,180,39*75
609$GPGSV,3,2,09,17,05,225,39,25,48,142,44,13,74,232,45,04,54,280,46*7F
610$GPGSV,3,3,09,16,06,070,29*4D
611$GPGGA,115857,5000.0117,N,00904.8423,E,1,07,1.20,127.1,M,47.908,M,,*7C
612$GPRMC,115857,A,5000.0117,N,00904.8423,E,4.9152,88.600,130507,,*1D
613$GPGSA,A,3,20,02,23,27,25,13,04,,,,,,2.0,1.2,0.9*3F
614$GPGGA,115858,5000.0119,N,00904.8449,E,1,07,1.20,126.8,M,47.908,M,,*79
615$GPRMC,115858,A,5000.0119,N,00904.8449,E,4.6762,88.169,130507,,*12
616$GPGSA,A,3,20,02,23,27,25,13,04,,,,,,2.0,1.2,0.9*3F
617$GPGGA,115859,5000.0117,N,00904.8466,E,1,07,1.20,127.0,M,47.908,M,,*72
618$GPRMC,115859,A,5000.0117,N,00904.8466,E,4.6762,88.169,130507,,*10
619$GPGSA,A,3,20,02,23,27,25,13,04,,,,,,2.0,1.2,0.9*3F
620$GPGGA,115900,5000.0120,N,00904.8484,E,1,07,1.20,126.5,M,47.908,M,,*73
621$GPRMC,115900,A,5000.0120,N,00904.8484,E,4.6762,88.169,130507,,*15
622$GPGSA,A,3,20,02,23,27,25,13,04,,,,,,2.0,1.2,0.9*3F
623$GPGGA,115901,5000.0118,N,00904.8508,E,1,07,1.20,126.8,M,47.908,M,,*71
624$GPRMC,115901,A,5000.0118,N,00904.8508,E,4.6762,88.169,130507,,*1A
625$GPGSA,A,3,20,02,23,27,25,13,04,,,,,,2.0,1.2,0.9*3F
626$GPGSV,3,1,09,20,32,105,42,02,23,312,37,23,70,063,47,27,17,180,38*75
627$GPGSV,3,2,09,17,05,225,39,25,48,142,45,13,74,232,45,04,54,280,45*7D
628$GPGSV,3,3,09,16,06,070,31*44
629$GPGGA,115902,5000.0121,N,00904.8526,E,1,07,1.20,126.4,M,47.908,M,,*78
630$GPRMC,115902,A,5000.0121,N,00904.8526,E,4.9152,88.601,130507,,*1C
631$GPGSA,A,3,20,02,23,27,25,13,04,,,,,,2.0,1.2,0.9*3F
632$GPGGA,115903,5000.0120,N,00904.8543,E,1,07,1.20,126.6,M,47.908,M,,*79
633$GPRMC,115903,A,5000.0120,N,00904.8543,E,4.6762,88.169,130507,,*1C
634$GPGSA,A,3,20,02,23,27,25,13,04,,,,,,2.0,1.2,0.9*3F
635$GPGGA,115904,5000.0122,N,00904.8569,E,1,07,1.20,126.3,M,47.908,M,,*71
636$GPRMC,115904,A,5000.0122,N,00904.8569,E,4.7239,85.955,130507,,*11
637$GPGSA,A,3,20,02,23,27,25,13,04,,,,,,2.0,1.2,0.9*3F
638$GPGGA,115905,5000.0121,N,00904.8585,E,1,07,1.20,126.5,M,47.908,M,,*77
639$GPRMC,115905,A,5000.0121,N,00904.8585,E,4.6762,88.169,130507,,*11
640$GPGSA,A,3,20,02,23,27,25,13,04,,,,,,2.0,1.2,0.9*3F
641$GPGGA,115906,5000.0123,N,00904.8603,E,1,07,1.20,126.1,M,47.908,M,,*7F
642$GPRMC,115906,A,5000.0123,N,00904.8603,E,4.9734,84.693,130507,,*1F
643$GPGSA,A,3,20,02,23,27,25,13,04,,,,,,2.0,1.2,0.9*3F
644$GPGSV,3,1,09,20,32,105,43,02,23,312,39,23,70,063,46,27,17,180,38*7B
645$GPGSV,3,2,09,17,05,225,38,25,48,142,44,13,74,232,45,04,54,280,45*7D
646$GPGSV,3,3,09,16,06,070,00*46
647$GPGGA,115907,5000.0121,N,00904.8628,E,1,07,1.20,126.4,M,47.908,M,,*70
648$GPRMC,115907,A,5000.0121,N,00904.8628,E,4.9614,86.489,130507,,*1D
649$GPGSA,A,3,20,02,23,27,25,13,04,,,,,,2.0,1.2,0.9*3F
650$GPGGA,115908,5000.0124,N,00904.8646,E,1,07,1.20,125.9,M,47.908,M,,*7C
651$GPRMC,115908,A,5000.0124,N,00904.8646,E,4.9152,88.601,130507,,*16
652$GPGSA,A,3,20,02,23,27,25,13,04,,,,,,2.0,1.2,0.9*3F
653$GPGGA,115909,5000.0126,N,00904.8671,E,1,07,1.20,127.0,M,47.908,M,,*70
654$GPRMC,115909,A,5000.0126,N,00904.8671,E,4.9734,84.693,130507,,*10
655$GPGSA,A,3,20,02,23,27,25,13,04,,,,,,2.0,1.2,0.9*3F
656$GPGGA,115910,5000.0128,N,00904.8689,E,1,07,1.20,126.6,M,47.908,M,,*76
657$GPRMC,115910,A,5000.0128,N,00904.8689,E,4.7239,85.955,130507,,*13
658$GPGSA,A,3,20,02,23,27,25,13,04,,,,,,2.0,1.2,0.9*3F
659$GPGGA,115911,5000.0127,N,00904.8713,E,1,07,1.20,126.9,M,47.908,M,,*75
660$GPRMC,115911,A,5000.0127,N,00904.8713,E,4.7239,85.955,130507,,*1F
661$GPGSA,A,3,20,02,23,27,25,13,04,,,,,,2.0,1.2,0.9*3F
662$GPGSV,3,1,09,20,32,105,42,02,23,312,36,23,70,063,47,27,17,180,39*75
663$GPGSV,3,2,09,17,05,225,37,25,48,142,46,13,74,232,45,04,54,280,45*70
664$GPGSV,3,3,09,16,06,070,00*46
665$GPGGA,115912,5000.0129,N,00904.8731,E,1,07,1.20,126.4,M,47.908,M,,*75
666$GPRMC,115912,A,5000.0129,N,00904.8731,E,4.7375,84.071,130507,,*15
667$GPGSA,A,3,20,02,23,27,25,13,04,,,,,,2.0,1.2,0.9*3F
668$GPGGA,115913,5000.0128,N,00904.8748,E,1,07,1.20,126.6,M,47.908,M,,*79
669$GPRMC,115913,A,5000.0128,N,00904.8748,E,4.7375,84.071,130507,,*1B
670$GPGSA,A,3,20,02,23,27,25,13,04,,,,,,2.0,1.2,0.9*3F
671$GPGGA,115914,5000.0130,N,00904.8774,E,1,07,1.20,126.3,M,47.908,M,,*7D
672$GPRMC,115914,A,5000.0130,N,00904.8774,E,4.7375,84.071,130507,,*1A
673$GPGSA,A,3,20,02,23,27,25,13,04,,,,,,2.0,1.2,0.9*3F
674$GPGGA,115915,5000.0129,N,00904.8790,E,1,07,1.20,126.5,M,47.908,M,,*78
675$GPRMC,115915,A,5000.0129,N,00904.8790,E,4.7375,84.071,130507,,*19
676$GPGSA,A,3,20,02,23,27,25,13,04,,,,,,2.0,1.2,0.9*3F
677$GPGGA,115916,5000.0135,N,00904.8808,E,1,07,1.20,126.8,M,47.908,M,,*75
678$GPRMC,115916,A,5000.0135,N,00904.8808,E,4.7375,84.071,130507,,*19
679$GPGSA,A,3,20,02,23,27,25,13,04,,,,,,2.0,1.2,0.9*3F
680$GPGSV,3,1,09,20,32,105,42,02,23,312,37,23,70,061,47,27,17,180,38*77
681$GPGSV,3,2,09,17,05,225,37,25,49,142,44,13,74,234,45,04,54,280,45*75
682$GPGSV,3,3,09,16,06,070,00*46
683$GPGGA,115917,5000.0133,N,00904.8833,E,1,07,1.20,127.2,M,47.908,M,,*71
684$GPRMC,115917,A,5000.0133,N,00904.8833,E,4.7239,85.955,130507,,*11
685$GPGSA,A,3,20,02,23,27,25,13,04,,,,,,2.0,1.2,0.9*3F
686$GPGGA,115918,5000.0136,N,00904.8851,E,1,07,1.20,126.7,M,47.908,M,,*7B
687$GPRMC,115918,A,5000.0136,N,00904.8851,E,4.7375,84.071,130507,,*18
688$GPGSA,A,3,20,02,23,27,25,13,04,,,,,,2.0,1.2,0.9*3F
689$GPGGA,115919,5000.0134,N,00904.8876,E,1,07,1.20,127.0,M,47.908,M,,*7B
690$GPRMC,115919,A,5000.0134,N,00904.8876,E,4.7375,84.071,130507,,*1E
691$GPGSA,A,3,20,02,23,27,25,13,04,,,,,,2.0,1.2,0.9*3F
692$GPGGA,115920,5000.0137,N,00904.8893,E,1,07,1.20,126.6,M,47.908,M,,*7E
693$GPRMC,115920,A,5000.0137,N,00904.8893,E,4.7980,81.935,130507,,*10
694$GPGSA,A,3,20,02,23,27,25,13,04,,,,,,2.0,1.2,0.9*3F
695$GPGGA,115921,5000.0139,N,00904.8910,E,1,07,1.20,127.6,M,47.908,M,,*7A
696$GPRMC,115921,A,5000.0139,N,00904.8910,E,4.8224,80.097,130507,,*1F
697$GPGSA,A,3,20,02,23,27,25,13,04,,,,,,2.0,1.2,0.9*3F
698$GPGSV,3,1,09,20,32,105,43,02,23,312,39,23,70,061,47,27,17,180,40*77
699$GPGSV,3,2,09,17,05,225,42,25,49,142,45,13,74,234,46,04,54,280,44*74
700$GPGSV,3,3,09,16,06,070,00*46
701$GPGGA,115922,5000.0141,N,00904.8936,E,1,07,1.20,127.2,M,47.908,M,,*76
702$GPRMC,115922,A,5000.0141,N,00904.8936,E,4.8224,80.097,130507,,*17
703$GPGSA,A,3,20,02,23,27,25,13,04,,,,,,2.0,1.2,0.9*3F
704$GPGGA,115923,5000.0140,N,00904.8953,E,1,07,1.20,127.4,M,47.908,M,,*73
705$GPRMC,115923,A,5000.0140,N,00904.8953,E,4.7980,81.935,130507,,*1E
706$GPGSA,A,3,20,02,23,27,25,13,04,,,,,,2.0,1.2,0.9*3F
707$GPGGA,115924,5000.0146,N,00904.8970,E,1,07,1.20,127.8,M,47.908,M,,*7F
708$GPRMC,115924,A,5000.0146,N,00904.8970,E,4.7980,81.935,130507,,*1E
709$GPGSA,A,3,20,02,23,27,25,13,04,,,,,,2.0,1.2,0.9*3F
710$GPGGA,115925,5000.0148,N,00904.8997,E,1,07,1.20,127.4,M,47.908,M,,*75
711$GPRMC,115925,A,5000.0148,N,00904.8997,E,4.8224,80.097,130507,,*12
712$GPGSA,A,3,20,02,23,27,25,13,04,,,,,,2.0,1.2,0.9*3F
713$GPGGA,115926,5000.0147,N,00904.9013,E,1,07,1.20,127.6,M,47.908,M,,*7F
714$GPRMC,115926,A,5000.0147,N,00904.9013,E,4.8949,78.055,130507,,*13
715$GPGSA,A,3,20,02,23,27,25,13,04,,,,,,2.0,1.2,0.9*3F
716$GPGSV,3,1,09,20,32,105,43,02,23,312,39,23,70,061,47,27,17,180,39*79
717$GPGSV,3,2,09,17,05,225,40,25,49,142,45,13,74,234,45,04,54,280,45*74
718$GPGSV,3,3,09,16,06,070,00*46
719$GPGGA,115927,5000.0149,N,00904.9039,E,1,07,1.20,127.3,M,47.908,M,,*7D
720$GPRMC,115927,A,5000.0149,N,00904.9039,E,4.8224,80.097,130507,,*1D
721$GPGSA,A,3,20,02,23,27,25,13,04,,,,,,2.0,1.2,0.9*3F
722$GPGGA,115928,5000.0155,N,00904.9057,E,1,07,1.20,127.6,M,47.908,M,,*72
723$GPRMC,115928,A,5000.0155,N,00904.9057,E,4.8949,78.055,130507,,*1E
724$GPGSA,A,3,20,02,23,27,25,13,04,,,,,,2.0,1.2,0.9*3F
725$GPGGA,115929,5000.0158,N,00904.9075,E,1,07,1.20,127.2,M,47.908,M,,*7A
726$GPRMC,115929,A,5000.0158,N,00904.9075,E,5.2372,75.359,130507,,*19
727$GPGSA,A,3,20,02,23,27,25,13,04,,,,,,2.0,1.2,0.9*3F
728$GPGGA,115930,5000.0160,N,00904.9101,E,1,07,1.20,126.9,M,47.908,M,,*71
729$GPRMC,115930,A,5000.0160,N,00904.9101,E,4.9296,76.278,130507,,*18
730$GPGSA,A,3,20,02,23,27,25,13,04,,,,,,2.0,1.2,0.9*3F
731$GPGGA,115931,5000.0163,N,00904.9119,E,1,07,1.20,126.4,M,47.908,M,,*77
732$GPRMC,115931,A,5000.0163,N,00904.9119,E,4.8949,78.055,130507,,*18
733$GPGSA,A,3,20,02,23,27,25,13,04,,,,,,2.0,1.2,0.9*3F
734$GPGSV,3,1,09,20,32,105,42,02,23,312,39,23,70,061,46,27,17,180,39*79
735$GPGSV,3,2,09,17,05,225,38,25,49,142,44,13,74,234,45,04,54,280,45*7A
736$GPGSV,3,3,09,16,06,070,00*46
737$GPGGA,115932,5000.0168,N,00904.9145,E,1,07,1.20,126.9,M,47.908,M,,*7B
738$GPRMC,115932,A,5000.0168,N,00904.9145,E,4.8949,78.055,130507,,*19
739$GPGSA,A,3,20,02,23,27,25,13,04,,,,,,2.0,1.2,0.9*3F
740$GPGGA,115933,5000.0167,N,00904.9161,E,1,07,1.20,127.1,M,47.908,M,,*7A
741$GPRMC,115933,A,5000.0167,N,00904.9161,E,4.7911,73.229,130507,,*11
742$GPGSA,A,3,20,02,23,27,25,13,04,,,,,,2.0,1.2,0.9*3F
743$GPGGA,115934,5000.0169,N,00904.9188,E,1,07,1.20,126.8,M,47.908,M,,*7C
744$GPRMC,115934,A,5000.0169,N,00904.9188,E,4.7911,73.229,130507,,*1F
745$GPGSA,A,3,20,02,23,27,25,13,04,,,,,,2.0,1.2,0.9*3F
746$GPGGA,115935,5000.0175,N,00904.9205,E,1,07,1.20,127.1,M,47.908,M,,*7E
747$GPRMC,115935,A,5000.0175,N,00904.9205,E,5.0133,74.341,130507,,*13
748$GPGSA,A,3,20,02,23,27,25,13,04,,,,,,2.0,1.2,0.9*3F
749$GPGGA,115936,5000.0178,N,00904.9223,E,1,07,1.20,126.7,M,47.908,M,,*73
750$GPRMC,115936,A,5000.0178,N,00904.9223,E,5.0133,74.341,130507,,*19
751$GPGSA,A,3,20,02,23,27,25,13,04,,,,,,2.0,1.2,0.9*3F
752$GPGSV,3,1,09,20,32,105,41,02,23,312,40,23,70,061,46,27,17,180,38*75
753$GPGSV,3,2,09,17,05,225,40,25,49,142,45,13,74,234,46,04,54,280,42*70
754$GPGSV,3,3,09,16,06,070,00*46
755$GPGGA,115937,5000.0184,N,00904.9241,E,1,07,1.20,127.0,M,47.908,M,,*73
756$GPRMC,115937,A,5000.0184,N,00904.9241,E,5.0133,74.342,130507,,*1C
757$GPGSA,A,3,20,02,23,27,25,13,04,,,,,,2.0,1.2,0.9*3F
758$GPGGA,115938,5000.0187,N,00904.9267,E,1,07,1.20,126.7,M,47.908,M,,*7D
759$GPRMC,115938,A,5000.0187,N,00904.9267,E,4.7911,73.229,130507,,*11
760$GPGSA,A,3,20,02,23,27,25,13,04,,,,,,2.0,1.2,0.9*3F
761$GPGGA,115939,5000.0193,N,00904.9285,E,1,07,1.20,127.0,M,47.908,M,,*73
762$GPRMC,115939,A,5000.0193,N,00904.9285,E,4.5709,72.008,130507,,*1C
763$GPGSA,A,3,20,02,23,27,25,13,04,,,,,,2.0,1.2,0.9*3F
764$GPGGA,115940,5000.0196,N,00904.9303,E,1,07,1.20,126.6,M,47.908,M,,*70
765$GPRMC,115940,A,5000.0196,N,00904.9303,E,4.8385,71.458,130507,,*17
766$GPGSA,A,3,20,02,23,27,25,13,04,,,,,,2.0,1.2,0.9*3F
767$GPGGA,115941,5000.0198,N,00904.9319,E,1,07,1.20,127.5,M,47.908,M,,*76
768$GPRMC,115941,A,5000.0198,N,00904.9319,E,4.8385,71.458,130507,,*13
769$GPGSA,A,3,20,02,23,27,25,13,04,,,,,,2.0,1.2,0.9*3F
770$GPGSV,3,1,09,20,32,105,34,02,23,312,37,23,70,061,47,27,17,180,38*76
771$GPGSV,3,2,09,17,05,225,40,25,49,142,44,13,74,234,44,04,54,280,34*72
772$GPGSV,3,3,09,16,06,070,00*46
773$GPGGA,115942,5000.0204,N,00904.9337,E,1,07,1.20,127.9,M,47.908,M,,*73
774$GPRMC,115942,A,5000.0204,N,00904.9337,E,5.0577,72.638,130507,,*1F
775$GPGSA,A,3,20,02,23,27,25,13,04,,,,,,2.0,1.2,0.9*3F
776$GPGGA,115943,5000.0206,N,00904.9363,E,1,07,1.20,127.5,M,47.908,M,,*7D
777$GPRMC,115943,A,5000.0206,N,00904.9363,E,4.9359,69.576,130507,,*1C
778$GPGSA,A,3,20,02,23,27,25,13,04,,,,,,2.0,1.2,0.9*3F
779$GPGGA,115944,5000.0212,N,00904.9381,E,1,07,1.20,127.9,M,47.908,M,,*7F
780$GPRMC,115944,A,5000.0212,N,00904.9381,E,5.1517,70.814,130507,,*16
781$GPGSA,A,3,20,02,23,27,25,13,04,,,,,,2.0,1.2,0.9*3F
782$GPGGA,115945,5000.0219,N,00904.9399,E,1,07,1.20,128.2,M,47.908,M,,*78
783$GPRMC,115945,A,5000.0219,N,00904.9399,E,4.7911,73.229,130507,,*1F
784$GPGSA,A,3,20,02,23,27,25,13,04,,,,,,2.0,1.2,0.9*3F
785$GPGGA,115946,5000.0221,N,00904.9417,E,1,07,1.20,127.8,M,47.908,M,,*74
786$GPRMC,115946,A,5000.0221,N,00904.9417,E,4.6215,70.166,130507,,*13
787$GPGSA,A,3,20,02,23,27,25,13,04,,,,,,2.0,1.2,0.9*3F
788$GPGSV,3,1,09,20,32,105,34,02,23,312,40,23,70,061,41,27,17,180,38*70
789$GPGSV,3,2,09,17,05,225,41,25,49,142,36,13,74,234,44,04,54,280,44*71
790$GPGSV,3,3,09,16,06,070,00*46
791$GPGGA,115947,5000.0224,N,00904.9434,E,1,07,1.20,128.7,M,47.908,M,,*71
792$GPRMC,115947,A,5000.0224,N,00904.9434,E,4.6215,70.166,130507,,*16
793$GPGSA,A,3,20,02,23,27,25,13,04,,,,,,2.0,1.2,0.9*3F
794$GPGGA,115948,5000.0230,N,00904.9451,E,1,07,1.20,129.1,M,47.908,M,,*7F
795$GPRMC,115948,A,5000.0230,N,00904.9451,E,4.7911,73.229,130507,,*1A
796$GPGSA,A,3,20,02,23,27,25,13,04,,,,,,2.0,1.2,0.9*3F
797$GPGGA,115949,5000.0233,N,00904.9469,E,1,07,1.20,128.6,M,47.908,M,,*70
798$GPRMC,115949,A,5000.0233,N,00904.9469,E,4.6669,77.093,130507,,*15
799$GPGSA,A,3,20,02,23,27,25,13,04,,,,,,2.0,1.2,0.9*3F
800$GPGGA,115950,5000.0234,N,00904.9494,E,1,07,1.20,129.7,M,47.908,M,,*7D
801$GPRMC,115950,A,5000.0234,N,00904.9494,E,4.6669,77.093,130507,,*18
802$GPGSA,A,3,20,02,23,27,25,13,04,,,,,,2.0,1.2,0.9*3F
803$GPGGA,115951,5000.0240,N,00904.9512,E,1,06,2.00,130.1,M,47.908,M,,*7E
804$GPRMC,115951,A,5000.0240,N,00904.9512,E,4.7042,75.238,130507,,*1A
805$GPGSA,A,3,20,02,23,25,13,04,,,,,,,2.0,2.0,0.9*3B
806$GPGSV,3,1,09,20,32,105,44,02,23,312,38,23,70,061,47,27,17,180,00*75
807$GPGSV,3,2,09,17,05,225,32,25,49,142,45,13,74,234,44,04,54,280,43*76
808$GPGSV,3,3,09,16,06,070,00*46
809$GPGGA,115952,5000.0239,N,00904.9528,E,1,06,2.00,130.3,M,47.908,M,,*78
810$GPRMC,115952,A,5000.0239,N,00904.9528,E,4.7042,75.238,130507,,*1E
811$GPGSA,A,3,20,02,23,25,13,04,,,,,,,2.9,2.0,1.0*3A
812$GPGGA,115953,5000.0242,N,00904.9546,E,1,06,2.00,129.8,M,47.908,M,,*7E
813$GPRMC,115953,A,5000.0242,N,00904.9546,E,5.0133,74.342,130507,,*17
814$GPGSA,A,3,20,02,23,25,13,04,,,,,,,2.9,2.0,1.0*3A
815$GPGGA,115954,5000.0247,N,00904.9572,E,1,06,2.00,130.3,M,47.908,M,,*78
816$GPRMC,115954,A,5000.0247,N,00904.9572,E,4.9296,76.279,130507,,*1D
817$GPGSA,A,3,20,02,23,25,13,04,,,,,,,2.9,2.0,1.0*3A
818$GPGGA,115955,5000.0250,N,00904.9590,E,1,06,2.00,129.8,M,47.908,M,,*70
819$GPRMC,115955,A,5000.0250,N,00904.9590,E,4.8949,78.055,130507,,*1C
820$GPGSA,A,3,20,02,23,25,13,04,,,,,,,2.9,2.0,1.0*3A
821$GPGGA,115956,5000.0253,N,00904.9608,E,1,07,1.20,129.4,M,47.908,M,,*7E
822$GPRMC,115956,A,5000.0253,N,00904.9608,E,4.8224,80.098,130507,,*18
823$GPGSA,A,3,20,02,23,27,25,13,04,,,,,,2.9,1.2,1.0*3E
824$GPGSV,3,1,09,20,32,105,42,02,23,312,40,23,70,061,47,27,17,180,39*76
825$GPGSV,3,2,09,17,05,225,34,25,49,142,45,13,74,234,45,04,54,280,45*77
826$GPGSV,3,3,09,16,06,070,00*46
827$GPGGA,115957,5000.0255,N,00904.9634,E,1,07,1.20,129.1,M,47.908,M,,*73
828$GPRMC,115957,A,5000.0255,N,00904.9634,E,5.0542,80.894,130507,,*1A
829$GPGSA,A,3,20,02,23,27,25,13,04,,,,,,2.0,1.2,0.9*3F
830$GPGGA,115958,5000.0258,N,00904.9652,E,1,07,1.20,128.6,M,47.908,M,,*77
831$GPRMC,115958,A,5000.0258,N,00904.9652,E,4.7375,84.072,130507,,*18
832$GPGSA,A,3,20,02,23,27,25,13,04,,,,,,2.0,1.2,0.9*3F
833$GPGGA,115959,5000.0256,N,00904.9677,E,1,07,1.20,128.9,M,47.908,M,,*70
834$GPRMC,115959,A,5000.0256,N,00904.9677,E,4.7375,84.072,130507,,*10
835$GPGSA,A,3,20,02,23,27,25,13,04,,,,,,2.0,1.2,0.9*3F
836$GPGGA,120000,5000.0259,N,00904.9695,E,1,07,1.20,128.5,M,47.908,M,,*7C
837$GPRMC,120000,A,5000.0259,N,00904.9695,E,4.7239,85.957,130507,,*16
838$GPGSA,A,3,20,02,23,27,25,13,04,,,,,,2.0,1.2,0.9*3F
839$GPGGA,120001,5000.0257,N,00904.9719,E,1,07,1.20,128.8,M,47.908,M,,*7B
840$GPRMC,120001,A,5000.0257,N,00904.9719,E,4.6762,88.170,130507,,*16
841$GPGSA,A,3,20,02,23,27,25,13,04,,,,,,2.0,1.2,0.9*3F
842$GPGSV,3,1,09,20,32,105,42,02,23,312,36,23,70,061,48,27,17,180,39*78
843$GPGSV,3,2,09,17,05,225,14,25,49,142,45,13,74,234,45,04,54,280,46*76
844$GPGSV,3,3,09,16,06,070,00*46
845$GPGGA,120002,5000.0259,N,00904.9737,E,1,07,1.20,128.4,M,47.908,M,,*76
846$GPRMC,120002,A,5000.0259,N,00904.9737,E,4.8804,92.585,130507,,*13
847$GPGSA,A,3,20,02,23,27,25,13,04,,,,,,2.0,1.2,0.9*3F
848$GPGGA,120003,5000.0262,N,00904.9763,E,1,07,1.20,128.0,M,47.908,M,,*7A
849$GPRMC,120003,A,5000.0262,N,00904.9763,E,4.8804,92.585,130507,,*1B
850$GPGSA,A,3,20,02,23,27,25,13,04,,,,,,2.0,1.2,0.9*3F
851$GPGGA,120004,5000.0260,N,00904.9780,E,1,07,1.20,128.3,M,47.908,M,,*71
852$GPRMC,120004,A,5000.0260,N,00904.9780,E,4.8899,94.413,130507,,*1F
853$GPGSA,A,3,20,02,23,27,25,13,04,,,,,,2.0,1.2,0.9*3F
854$GPGGA,120005,5000.0255,N,00904.9805,E,1,07,1.20,127.8,M,47.908,M,,*70
855$GPRMC,120005,A,5000.0255,N,00904.9805,E,4.8824,100.623,130507,,*21
856$GPGSA,A,3,20,02,23,27,25,13,04,,,,,,2.0,1.2,0.9*3F
857$GPGGA,120006,5000.0254,N,00904.9821,E,1,07,1.20,128.0,M,47.908,M,,*73
858$GPRMC,120006,A,5000.0254,N,00904.9821,E,4.6411,100.813,130507,,*2C
859$GPGSA,A,3,20,02,23,27,25,13,04,,,,,,2.0,1.2,0.9*3F
860$GPGSV,2,1,08,20,31,105,37,02,24,312,36,23,70,061,47,27,18,180,39*7E
861$GPGSV,2,2,08,25,49,142,45,13,74,234,45,04,54,279,45,16,06,070,00*76
862$GPGGA,120007,5000.0252,N,00904.9838,E,1,07,1.20,128.2,M,47.908,M,,*7E
863$GPRMC,120007,A,5000.0252,N,00904.9838,E,4.6417,103.131,130507,,*2F
864$GPGSA,A,3,20,02,23,27,25,13,04,,,,,,2.1,1.2,1.0*36
865$GPGGA,120008,5000.0250,N,00904.9863,E,1,07,1.20,128.5,M,47.908,M,,*7A
866$GPRMC,120008,A,5000.0250,N,00904.9863,E,4.6797,104.993,130507,,*20
867$GPGSA,A,3,20,02,23,27,25,13,04,,,,,,2.1,1.2,1.0*36
868$GPGGA,120009,5000.0241,N,00904.9878,E,1,07,1.20,128.6,M,47.908,M,,*72
869$GPRMC,120009,A,5000.0241,N,00904.9878,E,4.7427,109.084,130507,,*20
870$GPGSA,A,3,20,02,23,27,25,13,04,,,,,,2.1,1.2,1.0*36
871$GPGGA,120010,5000.0240,N,00904.9894,E,1,07,1.20,128.8,M,47.908,M,,*77
872$GPRMC,120010,A,5000.0240,N,00904.9894,E,4.6797,104.993,130507,,*20
873$GPGSA,A,3,20,02,23,27,25,13,04,,,,,,2.1,1.2,1.0*36
874$GPGGA,120011,5000.0234,N,00904.9918,E,1,07,1.20,129.7,M,47.908,M,,*7E
875$GPRMC,120011,A,5000.0234,N,00904.9918,E,4.7427,109.084,130507,,*2C